Thunder radar more information blitzortung!


Radar de pluja more information rain snow radar


Visita la nostra xarxa de llocs de meteo:

Template documentation
and downloads

And another site



No particular awareness of the weather is required.    There are no Weather-warnings

Pagina Historial Weather Underground text

Diari Resum Setembre 15, 2017 Unitats:  Tant    Imperial   Mètric
« Previous Dia
SegĂźent Dia »
Diari Setmana Mensual Anual Personalitzada
  Maxima: Minima: Media:
Temperatura: 65.1 °F /  18.4 °C 49.3 °F /  9.6 °C 55.2 °F /  12.9 °C
Punt de rosada: 54 °F /  12.2 °C 46.2 °F /  7.9 °C 51.4 °F /  10.8 °C
Humitat: 91 % 64 % 88 %
Wind Speed: 4.6 mph /  7.4 km/h - 1.4 mph /  2.2 km/h
RĂ fegues de vent: 4.6 mph /  7.4 km/h - -
Vent:- - SSW
Pression baro: 30 in /  1015.8 hPa 29.9 in /  1011.7 hPa -
Precipitacions: 0.58 in /  14.7 mm    
Historical Graphs
 
 
Dades de taula per Setembre 15, 2017
Temps Temperatura Punt de rosada Pression baro Vent Wind Speed RĂ fegues de vent Humitat Rainfall Rate (Hourly)
00:00 65.1 °F /  18.4 °C 52.5 °F /  11.4 °C 30 in /  1015.8 hPa ENE 3.5 mph /  5.6 km/h 3.5 mph /  5.6 km/h 64 % 0 in /  0.0 mm
00:05 64.9 °F /  18.3 °C 52.9 °F /  11.6 °C 30 in /  1014.8 hPa SE 4.6 mph /  7.4 km/h 4.6 mph /  7.4 km/h 65 % 0 in /  0.0 mm
00:15 56.7 °F /  13.7 °C 52.2 °F /  11.2 °C 30 in /  1014.8 hPa NE 1 mph /  1.6 km/h 3 mph /  4.8 km/h 85 % 0 in /  0.0 mm
00:25 56.5 °F /  13.6 °C 51.6 °F /  10.9 °C 30 in /  1014.8 hPa NNE 1 mph /  1.6 km/h 2 mph /  3.2 km/h 84 % 0 in /  0.0 mm
00:35 56.5 °F /  13.6 °C 52 °F /  11.1 °C 30 in /  1014.8 hPa North 1 mph /  1.6 km/h 1 mph /  1.6 km/h 85 % 0 in /  0.0 mm
00:45 56.7 °F /  13.7 °C 52.2 °F /  11.2 °C 29.9 in /  1013.8 hPa Calm   2 mph /  3.2 km/h 85 % 0 in /  0.0 mm
00:55 56.5 °F /  13.6 °C 52 °F /  11.1 °C 29.9 in /  1013.8 hPa Calm   2 mph /  3.2 km/h 85 % 0 in /  0.0 mm
01:05 56.5 °F /  13.6 °C 52 °F /  11.1 °C 29.9 in /  1013.8 hPa WSW 1 mph /  1.6 km/h 1 mph /  1.6 km/h 85 % 0 in /  0.0 mm
01:15 56.5 °F /  13.6 °C 52 °F /  11.1 °C 29.9 in /  1013.8 hPa Calm   1 mph /  1.6 km/h 85 % 0 in /  0.0 mm
01:25 56.1 °F /  13.4 °C 51.6 °F /  10.9 °C 30 in /  1014.8 hPa NNE 1 mph /  1.6 km/h 3 mph /  4.8 km/h 85 % 0 in /  0.0 mm
01:35 56.1 °F /  13.4 °C 51.6 °F /  10.9 °C 30 in /  1014.8 hPa Calm   2 mph /  3.2 km/h 85 % 0 in /  0.0 mm
01:45 56.1 °F /  13.4 °C 51.6 °F /  10.9 °C 30 in /  1014.8 hPa Calm   2 mph /  3.2 km/h 85 % 0 in /  0.0 mm
01:55 55.9 °F /  13.3 °C 51.3 °F /  10.7 °C 30 in /  1014.8 hPa NNE 1 mph /  1.6 km/h 3 mph /  4.8 km/h 84 % 0 in /  0.0 mm
02:05 55.8 °F /  13.2 °C 51.1 °F /  10.6 °C 30 in /  1014.8 hPa NNE 2 mph /  3.2 km/h 3 mph /  4.8 km/h 84 % 0 in /  0.0 mm
02:15 55.8 °F /  13.2 °C 51.1 °F /  10.6 °C 30 in /  1014.8 hPa NNE 1 mph /  1.6 km/h 2 mph /  3.2 km/h 84 % 0 in /  0.0 mm
02:25 55.9 °F /  13.3 °C 51.3 °F /  10.7 °C 30 in /  1014.8 hPa Calm   2 mph /  3.2 km/h 84 % 0 in /  0.0 mm
02:35 56.1 °F /  13.4 °C 51.4 °F /  10.8 °C 30 in /  1014.8 hPa WNW 1 mph /  1.6 km/h 2 mph /  3.2 km/h 84 % 0 in /  0.0 mm
02:45 55.9 °F /  13.3 °C 51.3 °F /  10.7 °C 30 in /  1014.8 hPa WNW 2 mph /  3.2 km/h 2 mph /  3.2 km/h 84 % 0 in /  0.0 mm
02:55 55.9 °F /  13.3 °C 51.3 °F /  10.7 °C 30 in /  1014.8 hPa NW 1 mph /  1.6 km/h 2 mph /  3.2 km/h 84 % 0 in /  0.0 mm
03:05 55.9 °F /  13.3 °C 51.3 °F /  10.7 °C 30 in /  1014.8 hPa North 1 mph /  1.6 km/h 2 mph /  3.2 km/h 84 % 0 in /  0.0 mm
03:15 55.9 °F /  13.3 °C 51.3 °F /  10.7 °C 30 in /  1014.8 hPa NNE 1 mph /  1.6 km/h 2 mph /  3.2 km/h 84 % 0 in /  0.0 mm
03:25 55.8 °F /  13.2 °C 51.1 °F /  10.6 °C 30 in /  1014.8 hPa NE 1 mph /  1.6 km/h 1 mph /  1.6 km/h 84 % 0 in /  0.0 mm
03:35 55.8 °F /  13.2 °C 51.1 °F /  10.6 °C 30 in /  1014.8 hPa NNW 1 mph /  1.6 km/h 2 mph /  3.2 km/h 84 % 0 in /  0.0 mm
03:45 55.4 °F /  13.0 °C 50 °F /  10.0 °C 30 in /  1014.8 hPa West 1 mph /  1.6 km/h 2 mph /  3.2 km/h 82 % 0 in /  0.0 mm
03:55 55.6 °F /  13.1 °C 50.2 °F /  10.1 °C 30 in /  1014.8 hPa SSW 1 mph /  1.6 km/h 1 mph /  1.6 km/h 82 % 0 in /  0.0 mm
04:05 55.4 °F /  13.0 °C 49.6 °F /  9.8 °C 30 in /  1014.8 hPa SW 2 mph /  3.2 km/h 2 mph /  3.2 km/h 81 % 0 in /  0.0 mm
04:15 55.2 °F /  12.9 °C 49.5 °F /  9.7 °C 30 in /  1014.8 hPa WSW 1 mph /  1.6 km/h 2 mph /  3.2 km/h 81 % 0 in /  0.0 mm
04:25 55.6 °F /  13.1 °C 49.8 °F /  9.9 °C 30 in /  1014.8 hPa Calm   1 mph /  1.6 km/h 81 % 0 in /  0.0 mm
04:35 55.6 °F /  13.1 °C 49.5 °F /  9.7 °C 30 in /  1014.8 hPa East 1 mph /  1.6 km/h   80 % 0 in /  0.0 mm
04:45 55.8 °F /  13.2 °C 50 °F /  10.0 °C 30 in /  1014.8 hPa Calm   2 mph /  3.2 km/h 81 % 0 in /  0.0 mm
04:55 55.6 °F /  13.1 °C 49.8 °F /  9.9 °C 30 in /  1014.8 hPa NNE 1 mph /  1.6 km/h 2 mph /  3.2 km/h 81 % 0 in /  0.0 mm
05:05 55.8 °F /  13.2 °C 50 °F /  10.0 °C 30 in /  1014.8 hPa Calm   3 mph /  4.8 km/h 81 % 0 in /  0.0 mm
05:15 55.6 °F /  13.1 °C 50.2 °F /  10.1 °C 30 in /  1014.8 hPa Calm   2 mph /  3.2 km/h 82 % 0 in /  0.0 mm
05:25 55.6 °F /  13.1 °C 50.5 °F /  10.3 °C 30 in /  1014.8 hPa Calm     83 % 0 in /  0.0 mm
10:33 55.4 °F /  13.0 °C 50.4 °F /  10.2 °C 30 in /  1014.8 hPa SW 2.3 mph /  3.7 km/h   83 % 0 in /  0.0 mm
10:34 55.4 °F /  13.0 °C 50.4 °F /  10.2 °C 30 in /  1014.8 hPa SW 2.3 mph /  3.7 km/h   83 % 0 in /  0.0 mm
10:35 55.4 °F /  13.0 °C 50.4 °F /  10.2 °C 30 in /  1014.8 hPa NNW 3.5 mph /  5.6 km/h   83 % 0 in /  0.0 mm
10:40 55.2 °F /  12.9 °C 50.2 °F /  10.1 °C 30 in /  1014.8 hPa NW 0.9 mph /  1.4 km/h   83 % 0 in /  0.0 mm
10:45 55 °F /  12.8 °C 50 °F /  10.0 °C 30 in /  1014.8 hPa West 1.4 mph /  2.3 km/h   83 % 0 in /  0.0 mm
10:50 55.2 °F /  12.9 °C 50.2 °F /  10.1 °C 30 in /  1014.8 hPa SSE 2.3 mph /  3.7 km/h 2.3 mph /  3.7 km/h 83 % 0 in /  0.0 mm
10:55 55.4 °F /  13.0 °C 50.5 °F /  10.3 °C 30 in /  1014.8 hPa SSE 1.2 mph /  1.9 km/h   84 % 0 in /  0.0 mm
11:00 55 °F /  12.8 °C 50.4 °F /  10.2 °C 30 in /  1014.8 hPa SE 2.2 mph /  3.5 km/h 2.2 mph /  3.5 km/h 84 % 0 in /  0.0 mm
11:05 54.7 °F /  12.6 °C 49.6 °F /  9.8 °C 30 in /  1014.8 hPa WNW 1.2 mph /  1.9 km/h   83 % 0 in /  0.0 mm
11:10 54.9 °F /  12.7 °C 50.2 °F /  10.1 °C 30 in /  1014.8 hPa East 2.3 mph /  3.7 km/h 2.3 mph /  3.7 km/h 84 % 0 in /  0.0 mm
11:15 55 °F /  12.8 °C 50.4 °F /  10.2 °C 30 in /  1014.8 hPa NNE 1.2 mph /  1.9 km/h   84 % 0 in /  0.0 mm
11:20 54.9 °F /  12.7 °C 50.2 °F /  10.1 °C 30 in /  1014.8 hPa Calm     84 % 0 in /  0.0 mm
11:25 55 °F /  12.8 °C 50.5 °F /  10.3 °C 30 in /  1014.8 hPa Calm     85 % 0 in /  0.0 mm
11:30 55 °F /  12.8 °C 50.5 °F /  10.3 °C 30 in /  1014.8 hPa SSE 1.2 mph /  1.9 km/h   85 % 0 in /  0.0 mm
11:35 55 °F /  12.8 °C 50.5 °F /  10.3 °C 30 in /  1014.8 hPa ESE 1.4 mph /  2.3 km/h 1.4 mph /  2.3 km/h 85 % 0 in /  0.0 mm
11:40 55 °F /  12.8 °C 50.5 °F /  10.3 °C 30 in /  1014.8 hPa SW 0.9 mph /  1.4 km/h   85 % 0 in /  0.0 mm
11:45 55.4 °F /  13.0 °C 51.1 °F /  10.6 °C 30 in /  1014.8 hPa South 1.2 mph /  1.9 km/h   85 % 0 in /  0.0 mm
11:50 55.4 °F /  13.0 °C 51.1 °F /  10.6 °C 30 in /  1014.8 hPa ESE 1.2 mph /  1.9 km/h   85 % 0 in /  0.0 mm
11:55 55.2 °F /  12.9 °C 50.7 °F /  10.4 °C 30 in /  1014.8 hPa WSW 1.2 mph /  1.9 km/h 1.4 mph /  2.3 km/h 85 % 0 in /  0.0 mm
12:00 55.2 °F /  12.9 °C 50.7 °F /  10.4 °C 30 in /  1014.8 hPa SW 1.2 mph /  1.9 km/h   85 % 0 in /  0.0 mm
12:05 55.2 °F /  12.9 °C 50.7 °F /  10.4 °C 30 in /  1014.8 hPa South 1.2 mph /  1.9 km/h   85 % 0 in /  0.0 mm
12:10 55.2 °F /  12.9 °C 50.7 °F /  10.4 °C 30 in /  1014.8 hPa ESE 1.2 mph /  1.9 km/h 1.2 mph /  1.9 km/h 85 % 0 in /  0.0 mm
12:15 55.4 °F /  13.0 °C 51.1 °F /  10.6 °C 30 in /  1014.8 hPa SW 1.6 mph /  2.6 km/h   85 % 0.04 in /  1.0 mm
12:20 55.4 °F /  13.0 °C 51.3 °F /  10.7 °C 30 in /  1014.8 hPa SW 1.4 mph /  2.3 km/h 1.4 mph /  2.3 km/h 86 % 0.04 in /  1.0 mm
12:25 55.2 °F /  12.9 °C 50.7 °F /  10.4 °C 30 in /  1014.8 hPa NNW 1.2 mph /  1.9 km/h   85 % 0.04 in /  1.0 mm
12:30 55.4 °F /  13.0 °C 51.3 °F /  10.7 °C 30 in /  1014.8 hPa WNW 1.2 mph /  1.9 km/h   86 % 0.04 in /  1.0 mm
12:35 55.6 °F /  13.1 °C 51.4 °F /  10.8 °C 29.9 in /  1013.8 hPa Calm     86 % 0.04 in /  1.0 mm
12:40 55.8 °F /  13.2 °C 51.6 °F /  10.9 °C 29.9 in /  1013.8 hPa West 2.3 mph /  3.7 km/h 2.3 mph /  3.7 km/h 86 % 0.04 in /  1.0 mm
12:41 55.8 °F /  13.2 °C 51.6 °F /  10.9 °C 29.9 in /  1013.8 hPa WNW 2.3 mph /  3.7 km/h 2.3 mph /  3.7 km/h 86 % 0.04 in /  1.0 mm
12:46 55.9 °F /  13.3 °C 51.8 °F /  11.0 °C 29.9 in /  1013.8 hPa WSW 2.6 mph /  4.2 km/h   86 % 0.04 in /  1.0 mm
12:51 55.8 °F /  13.2 °C 51.3 °F /  10.7 °C 30 in /  1014.8 hPa SW 3.5 mph /  5.6 km/h 3.5 mph /  5.6 km/h 85 % 0.04 in /  1.0 mm
12:56 55.9 °F /  13.3 °C 51.8 °F /  11.0 °C 30 in /  1014.8 hPa Calm     86 % 0.04 in /  1.0 mm
13:01 55.6 °F /  13.1 °C 51.4 °F /  10.8 °C 30 in /  1014.8 hPa NNE 1.2 mph /  1.9 km/h 1.2 mph /  1.9 km/h 86 % 0.04 in /  1.0 mm
13:06 55.8 °F /  13.2 °C 51.6 °F /  10.9 °C 29.9 in /  1013.8 hPa WSW 1.4 mph /  2.3 km/h   86 % 0.04 in /  1.0 mm
13:11 56.1 °F /  13.4 °C 52.3 °F /  11.3 °C 29.9 in /  1013.8 hPa West 1.2 mph /  1.9 km/h   87 % 0.04 in /  1.0 mm
13:16 55.9 °F /  13.3 °C 52.2 °F /  11.2 °C 29.9 in /  1013.8 hPa NNW 1.2 mph /  1.9 km/h 1.2 mph /  1.9 km/h 87 % 0 in /  0.0 mm
13:21 56.1 °F /  13.4 °C 52.3 °F /  11.3 °C 29.9 in /  1013.8 hPa SW 1.2 mph /  1.9 km/h 1.4 mph /  2.3 km/h 87 % 0 in /  0.0 mm
13:26 56.5 °F /  13.6 °C 52.7 °F /  11.5 °C 29.9 in /  1013.8 hPa WSW 1.4 mph /  2.3 km/h 1.4 mph /  2.3 km/h 87 % 0 in /  0.0 mm
13:31 56.5 °F /  13.6 °C 52.7 °F /  11.5 °C 29.9 in /  1013.8 hPa SW 1.2 mph /  1.9 km/h   87 % 0 in /  0.0 mm
13:34 56.3 °F /  13.5 °C 52.5 °F /  11.4 °C 29.9 in /  1013.8 hPa WNW 1.2 mph /  1.9 km/h   87 % 0 in /  0.0 mm
13:39 56.1 °F /  13.4 °C 52.3 °F /  11.3 °C 29.9 in /  1013.8 hPa South 1.2 mph /  1.9 km/h   87 % 0.04 in /  1.0 mm
13:44 55.9 °F /  13.3 °C 52.2 °F /  11.2 °C 29.9 in /  1013.8 hPa ENE 1.2 mph /  1.9 km/h   87 % 0.04 in /  1.0 mm
13:49 56.1 °F /  13.4 °C 52.3 °F /  11.3 °C 29.9 in /  1013.8 hPa WSW 2.3 mph /  3.7 km/h 2.3 mph /  3.7 km/h 87 % 0.04 in /  1.0 mm
13:54 56.1 °F /  13.4 °C 52.3 °F /  11.3 °C 29.9 in /  1013.8 hPa SW 2.3 mph /  3.7 km/h   87 % 0.04 in /  1.0 mm
13:59 56.3 °F /  13.5 °C 52.5 °F /  11.4 °C 29.9 in /  1013.8 hPa Calm     87 % 0.04 in /  1.0 mm
14:04 56.3 °F /  13.5 °C 52.9 °F /  11.6 °C 29.9 in /  1013.8 hPa WNW 1.2 mph /  1.9 km/h   88 % 0.04 in /  1.0 mm
14:09 56.1 °F /  13.4 °C 52.3 °F /  11.3 °C 29.9 in /  1013.8 hPa SW 2.3 mph /  3.7 km/h 2.3 mph /  3.7 km/h 87 % 0.04 in /  1.0 mm
14:14 56.3 °F /  13.5 °C 52.5 °F /  11.4 °C 29.9 in /  1013.8 hPa SW 2.3 mph /  3.7 km/h 2.3 mph /  3.7 km/h 87 % 0.04 in /  1.0 mm
14:19 56.3 °F /  13.5 °C 52.5 °F /  11.4 °C 29.9 in /  1013.8 hPa WNW 3.5 mph /  5.6 km/h 3.5 mph /  5.6 km/h 87 % 0.04 in /  1.0 mm
14:24 56.1 °F /  13.4 °C 52.3 °F /  11.3 °C 29.9 in /  1013.8 hPa SW 1.2 mph /  1.9 km/h   87 % 0.04 in /  1.0 mm
14:29 56.1 °F /  13.4 °C 52.3 °F /  11.3 °C 29.9 in /  1013.8 hPa SW 2.3 mph /  3.7 km/h 2.3 mph /  3.7 km/h 87 % 0.04 in /  1.0 mm
14:34 55.9 °F /  13.3 °C 52.2 °F /  11.2 °C 29.9 in /  1013.8 hPa West 1.2 mph /  1.9 km/h   87 % 0.04 in /  1.0 mm
14:39 55.9 °F /  13.3 °C 52.2 °F /  11.2 °C 29.9 in /  1013.8 hPa NNW 2.4 mph /  3.9 km/h 2.4 mph /  3.9 km/h 87 % 0.04 in /  1.0 mm
14:44 55.9 °F /  13.3 °C 52.2 °F /  11.2 °C 29.9 in /  1013.8 hPa SW 1.2 mph /  1.9 km/h   87 % 0.04 in /  1.0 mm
14:49 55.9 °F /  13.3 °C 52.3 °F /  11.3 °C 29.9 in /  1013.8 hPa West 1.2 mph /  1.9 km/h 1.2 mph /  1.9 km/h 88 % 0.04 in /  1.0 mm
14:54 55.8 °F /  13.2 °C 52 °F /  11.1 °C 29.9 in /  1013.8 hPa WSW 1.4 mph /  2.3 km/h 1.4 mph /  2.3 km/h 87 % 0.04 in /  1.0 mm
15:04 55.9 °F /  13.3 °C 52.3 °F /  11.3 °C 29.9 in /  1013.8 hPa Calm     88 % 0.04 in /  1.0 mm
15:09 56.1 °F /  13.4 °C 52.5 °F /  11.4 °C 29.9 in /  1013.8 hPa WNW 1.2 mph /  1.9 km/h   88 % 0.04 in /  1.0 mm
15:14 56.3 °F /  13.5 °C 53.1 °F /  11.7 °C 29.9 in /  1013.8 hPa Calm     89 % 0.08 in /  2.0 mm
15:19 56.3 °F /  13.5 °C 52.9 °F /  11.6 °C 29.9 in /  1013.8 hPa SW 1.4 mph /  2.3 km/h   88 % 0.08 in /  2.0 mm
15:24 56.5 °F /  13.6 °C 53.2 °F /  11.8 °C 29.9 in /  1013.8 hPa Calm     89 % 0.08 in /  2.0 mm
15:29 56.7 °F /  13.7 °C 53.4 °F /  11.9 °C 29.9 in /  1013.8 hPa West 1.2 mph /  1.9 km/h   89 % 0.08 in /  2.0 mm
15:34 56.5 °F /  13.6 °C 53.2 °F /  11.8 °C 29.9 in /  1013.8 hPa SW 2.3 mph /  3.7 km/h   89 % 0.08 in /  2.0 mm
15:39 56.7 °F /  13.7 °C 53.4 °F /  11.9 °C 29.9 in /  1013.8 hPa Calm     89 % 0.04 in /  1.0 mm
15:49 56.3 °F /  13.5 °C 53.1 °F /  11.7 °C 29.9 in /  1013.8 hPa Calm     89 % 0.04 in /  1.0 mm
15:54 56.5 °F /  13.6 °C 53.6 °F /  12.0 °C 29.9 in /  1013.8 hPa Calm     90 % 0.04 in /  1.0 mm
15:59 56.5 °F /  13.6 °C 53.6 °F /  12.0 °C 29.9 in /  1013.8 hPa Calm     90 % 0.04 in /  1.0 mm
16:04 56.8 °F /  13.8 °C 54 °F /  12.2 °C 29.9 in /  1012.8 hPa SW 1.2 mph /  1.9 km/h   90 % 0.04 in /  1.0 mm
16:09 56.7 °F /  13.7 °C 53.8 °F /  12.1 °C 29.9 in /  1012.8 hPa SW 1.4 mph /  2.3 km/h 2 mph /  3.2 km/h 90 % 0.04 in /  1.0 mm
16:14 56.8 °F /  13.8 °C 54 °F /  12.2 °C 29.9 in /  1012.8 hPa SW 1.2 mph /  1.9 km/h   90 % 0.05 in /  1.3 mm
16:19 56.3 °F /  13.5 °C 53.1 °F /  11.7 °C 29.9 in /  1013.8 hPa East 2.3 mph /  3.7 km/h 2.3 mph /  3.7 km/h 89 % 0.05 in /  1.3 mm
16:24 56.5 °F /  13.6 °C 53.2 °F /  11.8 °C 29.9 in /  1013.8 hPa Calm     89 % 0.05 in /  1.3 mm
16:29 56.3 °F /  13.5 °C 53.1 °F /  11.7 °C 29.9 in /  1013.8 hPa NE 3.1 mph /  5.0 km/h 3.1 mph /  5.0 km/h 89 % 0.05 in /  1.3 mm
16:34 56.5 °F /  13.6 °C 53.2 °F /  11.8 °C 29.9 in /  1013.8 hPa ENE 2.9 mph /  4.7 km/h 2.9 mph /  4.7 km/h 89 % 0.05 in /  1.3 mm
16:39 56.3 °F /  13.5 °C 53.1 °F /  11.7 °C 29.9 in /  1013.8 hPa ENE 3.3 mph /  5.3 km/h 3.3 mph /  5.3 km/h 89 % 0.05 in /  1.3 mm
16:44 56.3 °F /  13.5 °C 53.1 °F /  11.7 °C 29.9 in /  1013.8 hPa ENE 2.3 mph /  3.7 km/h 2.3 mph /  3.7 km/h 89 % 0.05 in /  1.3 mm
16:49 56.1 °F /  13.4 °C 52.9 °F /  11.6 °C 29.9 in /  1011.7 hPa ENE 1.4 mph /  2.3 km/h 1.6 mph /  2.6 km/h 89 % 0.05 in /  1.3 mm
16:50 56.1 °F /  13.4 °C 52.9 °F /  11.6 °C 29.9 in /  1011.7 hPa NNE 2.4 mph /  3.9 km/h 2.4 mph /  3.9 km/h 89 % 0.05 in /  1.3 mm
16:55 56.1 °F /  13.4 °C 52.9 °F /  11.6 °C 29.9 in /  1011.7 hPa East 2.3 mph /  3.7 km/h 2.3 mph /  3.7 km/h 89 % 0.05 in /  1.3 mm
17:00 55.9 °F /  13.3 °C 52.7 °F /  11.5 °C 29.9 in /  1011.7 hPa East 2.3 mph /  3.7 km/h 2.3 mph /  3.7 km/h 89 % 0.05 in /  1.3 mm
17:05 56.1 °F /  13.4 °C 52.9 °F /  11.6 °C 29.9 in /  1012.8 hPa SW 2.9 mph /  4.7 km/h 2.9 mph /  4.7 km/h 89 % 0.05 in /  1.3 mm
17:10 56.5 °F /  13.6 °C 53.2 °F /  11.8 °C 29.9 in /  1012.8 hPa South 2.3 mph /  3.7 km/h   89 % 0.05 in /  1.3 mm
17:15 56.7 °F /  13.7 °C 53.8 °F /  12.1 °C 29.9 in /  1012.8 hPa SSE 2.4 mph /  3.9 km/h   90 % 0 in /  0.0 mm
17:20 56.7 °F /  13.7 °C 53.8 °F /  12.1 °C 29.9 in /  1012.8 hPa SW 2.6 mph /  4.2 km/h 2.6 mph /  4.2 km/h 90 % 0 in /  0.0 mm
17:25 56.7 °F /  13.7 °C 53.4 °F /  11.9 °C 29.9 in /  1012.8 hPa SSW 2.3 mph /  3.7 km/h   89 % 0.04 in /  1.0 mm
17:30 56.7 °F /  13.7 °C 53.8 °F /  12.1 °C 29.9 in /  1012.8 hPa SW 2.4 mph /  3.9 km/h 2.4 mph /  3.9 km/h 90 % 0.04 in /  1.0 mm
17:35 56.5 °F /  13.6 °C 53.6 °F /  12.0 °C 29.9 in /  1013.8 hPa West 1.2 mph /  1.9 km/h 1.2 mph /  1.9 km/h 90 % 0.04 in /  1.0 mm
17:40 56.3 °F /  13.5 °C 53.4 °F /  11.9 °C 29.9 in /  1013.8 hPa Calm     90 % 0.04 in /  1.0 mm
17:45 56.3 °F /  13.5 °C 53.4 °F /  11.9 °C 29.9 in /  1013.8 hPa SW 2.3 mph /  3.7 km/h 2.3 mph /  3.7 km/h 90 % 0.04 in /  1.0 mm
17:50 56.1 °F /  13.4 °C 53.2 °F /  11.8 °C 29.9 in /  1012.8 hPa WSW 2.3 mph /  3.7 km/h 2.3 mph /  3.7 km/h 90 % 0.04 in /  1.0 mm
17:55 56.3 °F /  13.5 °C 53.4 °F /  11.9 °C 29.9 in /  1012.8 hPa Calm     90 % 0.04 in /  1.0 mm
18:00 56.5 °F /  13.6 °C 53.6 °F /  12.0 °C 29.9 in /  1012.8 hPa Calm     90 % 0.04 in /  1.0 mm
18:05 56.3 °F /  13.5 °C 53.4 °F /  11.9 °C 29.9 in /  1012.8 hPa SSW 2.3 mph /  3.7 km/h 2.3 mph /  3.7 km/h 90 % 0.04 in /  1.0 mm
18:10 56.1 °F /  13.4 °C 53.2 °F /  11.8 °C 29.9 in /  1012.8 hPa SW 2.3 mph /  3.7 km/h   90 % 0.04 in /  1.0 mm
18:15 56.1 °F /  13.4 °C 53.2 °F /  11.8 °C 29.9 in /  1012.8 hPa Calm     90 % 0.04 in /  1.0 mm
18:20 56.3 °F /  13.5 °C 53.8 °F /  12.1 °C 29.9 in /  1012.8 hPa SW 2.3 mph /  3.7 km/h   91 % 0.04 in /  1.0 mm
18:25 56.1 °F /  13.4 °C 53.4 °F /  11.9 °C 29.9 in /  1012.8 hPa Calm     91 % 0 in /  0.0 mm
18:30 55.9 °F /  13.3 °C 53.1 °F /  11.7 °C 29.9 in /  1012.8 hPa WSW 2.3 mph /  3.7 km/h 2.3 mph /  3.7 km/h 90 % 0 in /  0.0 mm
18:35 55.9 °F /  13.3 °C 53.4 °F /  11.9 °C 29.9 in /  1012.8 hPa SE 1.2 mph /  1.9 km/h   91 % 0 in /  0.0 mm
18:36 55.9 °F /  13.3 °C 53.4 °F /  11.9 °C 29.9 in /  1012.8 hPa SE 1.2 mph /  1.9 km/h   91 % 0 in /  0.0 mm
18:41 55.9 °F /  13.3 °C 53.4 °F /  11.9 °C 29.9 in /  1012.8 hPa Calm     91 % 0.04 in /  1.0 mm
18:46 55.8 °F /  13.2 °C 52.9 °F /  11.6 °C 29.9 in /  1012.8 hPa WSW 2.3 mph /  3.7 km/h 2.3 mph /  3.7 km/h 90 % 0.04 in /  1.0 mm
18:51 55.8 °F /  13.2 °C 52.9 °F /  11.6 °C 29.9 in /  1013.8 hPa WSW 3.5 mph /  5.6 km/h 3.5 mph /  5.6 km/h 90 % 0.04 in /  1.0 mm
18:56 55.9 °F /  13.3 °C 53.1 °F /  11.7 °C 29.9 in /  1013.8 hPa West 1.2 mph /  1.9 km/h   90 % 0.04 in /  1.0 mm
19:01 55.8 °F /  13.2 °C 53.2 °F /  11.8 °C 29.9 in /  1013.8 hPa SW 2.3 mph /  3.7 km/h   91 % 0.04 in /  1.0 mm
19:06 55.6 °F /  13.1 °C 52.7 °F /  11.5 °C 29.9 in /  1012.8 hPa West 1.2 mph /  1.9 km/h   90 % 0.04 in /  1.0 mm
19:11 55.6 °F /  13.1 °C 53.1 °F /  11.7 °C 29.9 in /  1012.8 hPa Calm     91 % 0.04 in /  1.0 mm
19:16 55.6 °F /  13.1 °C 53.1 °F /  11.7 °C 29.9 in /  1012.8 hPa Calm     91 % 0.04 in /  1.0 mm
19:21 55.6 °F /  13.1 °C 53.1 °F /  11.7 °C 29.9 in /  1012.8 hPa Calm     91 % 0.04 in /  1.0 mm
19:26 55.6 °F /  13.1 °C 53.1 °F /  11.7 °C 29.9 in /  1012.8 hPa West 1.2 mph /  1.9 km/h   91 % 0.04 in /  1.0 mm
19:31 55.6 °F /  13.1 °C 53.1 °F /  11.7 °C 29.9 in /  1012.8 hPa WSW 1.2 mph /  1.9 km/h   91 % 0.04 in /  1.0 mm
19:36 55.6 °F /  13.1 °C 53.1 °F /  11.7 °C 29.9 in /  1012.8 hPa Calm     91 % 0.04 in /  1.0 mm
19:41 55.4 °F /  13.0 °C 52.9 °F /  11.6 °C 29.9 in /  1012.8 hPa Calm     91 % 0 in /  0.0 mm
19:46 55.4 °F /  13.0 °C 52.5 °F /  11.4 °C 29.9 in /  1012.8 hPa NE 2.3 mph /  3.7 km/h 2.3 mph /  3.7 km/h 90 % 0 in /  0.0 mm
19:51 55.4 °F /  13.0 °C 52.9 °F /  11.6 °C 29.9 in /  1011.7 hPa NNE 1.2 mph /  1.9 km/h   91 % 0 in /  0.0 mm
19:56 55.6 °F /  13.1 °C 53.1 °F /  11.7 °C 29.9 in /  1011.7 hPa NNE 2.3 mph /  3.7 km/h 2.3 mph /  3.7 km/h 91 % 0 in /  0.0 mm
20:01 55.4 °F /  13.0 °C 52.9 °F /  11.6 °C 29.9 in /  1011.7 hPa NNE 1.2 mph /  1.9 km/h   91 % 0 in /  0.0 mm
20:06 55.2 °F /  12.9 °C 52.3 °F /  11.3 °C 29.9 in /  1012.8 hPa SSE 3.5 mph /  5.6 km/h 3.5 mph /  5.6 km/h 90 % 0 in /  0.0 mm
20:11 55 °F /  12.8 °C 52.2 °F /  11.2 °C 29.9 in /  1012.8 hPa West 2.3 mph /  3.7 km/h 2.3 mph /  3.7 km/h 90 % 0 in /  0.0 mm
20:16 55.2 °F /  12.9 °C 52.3 °F /  11.3 °C 29.9 in /  1012.8 hPa Calm     90 % 0 in /  0.0 mm
20:21 55.2 °F /  12.9 °C 52.3 °F /  11.3 °C 29.9 in /  1013.8 hPa SW 3.3 mph /  5.3 km/h 3.3 mph /  5.3 km/h 90 % 0 in /  0.0 mm
20:26 55.4 °F /  13.0 °C 52.5 °F /  11.4 °C 29.9 in /  1013.8 hPa WSW 2.3 mph /  3.7 km/h 2.3 mph /  3.7 km/h 90 % 0 in /  0.0 mm
20:31 55.2 °F /  12.9 °C 52.3 °F /  11.3 °C 29.9 in /  1013.8 hPa SW 2.3 mph /  3.7 km/h   90 % 0 in /  0.0 mm
20:36 55.2 °F /  12.9 °C 52.3 °F /  11.3 °C 29.9 in /  1013.8 hPa SSW 3.5 mph /  5.6 km/h 3.5 mph /  5.6 km/h 90 % 0 in /  0.0 mm
20:41 55.2 °F /  12.9 °C 52.5 °F /  11.4 °C 29.9 in /  1013.8 hPa WSW 2.3 mph /  3.7 km/h 2.3 mph /  3.7 km/h 91 % 0 in /  0.0 mm
20:46 55 °F /  12.8 °C 52.5 °F /  11.4 °C 29.9 in /  1013.8 hPa West 2.3 mph /  3.7 km/h 2.3 mph /  3.7 km/h 91 % 0 in /  0.0 mm
20:51 54.9 °F /  12.7 °C 52 °F /  11.1 °C 29.9 in /  1013.8 hPa West 2.3 mph /  3.7 km/h 2.3 mph /  3.7 km/h 90 % 0 in /  0.0 mm
20:56 54.9 °F /  12.7 °C 52 °F /  11.1 °C 29.9 in /  1013.8 hPa Calm     90 % 0 in /  0.0 mm
21:01 54.5 °F /  12.5 °C 51.6 °F /  10.9 °C 29.9 in /  1013.8 hPa West 3.1 mph /  5.0 km/h 3.1 mph /  5.0 km/h 90 % 0 in /  0.0 mm
21:06 54.3 °F /  12.4 °C 51.4 °F /  10.8 °C 29.9 in /  1013.8 hPa WNW 2.3 mph /  3.7 km/h 2.3 mph /  3.7 km/h 90 % 0 in /  0.0 mm
21:11 54.3 °F /  12.4 °C 51.4 °F /  10.8 °C 29.9 in /  1013.8 hPa SW 2.3 mph /  3.7 km/h 2.3 mph /  3.7 km/h 90 % 0 in /  0.0 mm
21:16 54.3 °F /  12.4 °C 51.4 °F /  10.8 °C 29.9 in /  1013.8 hPa WSW 2.4 mph /  3.9 km/h 2.4 mph /  3.9 km/h 90 % 0 in /  0.0 mm
21:21 54.3 °F /  12.4 °C 51.4 °F /  10.8 °C 29.9 in /  1013.8 hPa WSW 2.3 mph /  3.7 km/h 2.3 mph /  3.7 km/h 90 % 0 in /  0.0 mm
21:26 54.1 °F /  12.3 °C 51.3 °F /  10.7 °C 29.9 in /  1013.8 hPa SW 1.2 mph /  1.9 km/h 1.2 mph /  1.9 km/h 90 % 0 in /  0.0 mm
21:31 54.1 °F /  12.3 °C 51.3 °F /  10.7 °C 29.9 in /  1013.8 hPa Calm     90 % 0 in /  0.0 mm
21:36 54.1 °F /  12.3 °C 51.3 °F /  10.7 °C 29.9 in /  1013.8 hPa South 2.3 mph /  3.7 km/h 2.3 mph /  3.7 km/h 90 % 0 in /  0.0 mm
21:41 54 °F /  12.2 °C 51.1 °F /  10.6 °C 29.9 in /  1013.8 hPa West 1.2 mph /  1.9 km/h 1.2 mph /  1.9 km/h 90 % 0 in /  0.0 mm
21:46 54 °F /  12.2 °C 51.1 °F /  10.6 °C 29.9 in /  1013.8 hPa SSW 2.3 mph /  3.7 km/h   90 % 0 in /  0.0 mm
21:51 54 °F /  12.2 °C 51.1 °F /  10.6 °C 30 in /  1014.8 hPa SW 2.4 mph /  3.9 km/h 2.4 mph /  3.9 km/h 90 % 0 in /  0.0 mm
21:56 53.8 °F /  12.1 °C 50.9 °F /  10.5 °C 30 in /  1014.8 hPa SSW 2.3 mph /  3.7 km/h 2.3 mph /  3.7 km/h 90 % 0 in /  0.0 mm
22:01 53.6 °F /  12.0 °C 50.7 °F /  10.4 °C 30 in /  1014.8 hPa SW 1.2 mph /  1.9 km/h   90 % 0 in /  0.0 mm
22:06 53.6 °F /  12.0 °C 50.7 °F /  10.4 °C 29.9 in /  1013.8 hPa Calm     90 % 0 in /  0.0 mm
22:11 53.6 °F /  12.0 °C 50.7 °F /  10.4 °C 29.9 in /  1013.8 hPa SSW 1.2 mph /  1.9 km/h 1.4 mph /  2.3 km/h 90 % 0 in /  0.0 mm
22:15 50 °F /  10.0 °C 47.1 °F /  8.4 °C 29.9 in /  1012.8 hPa Calm     90 % 0 in /  0.0 mm
22:16 53.4 °F /  11.9 °C 50.5 °F /  10.3 °C 29.9 in /  1013.8 hPa SSW 2.3 mph /  3.7 km/h 2.3 mph /  3.7 km/h 90 % 0 in /  0.0 mm
22:21 53.2 °F /  11.8 °C 50.4 °F /  10.2 °C 29.9 in /  1013.8 hPa Calm     90 % 0 in /  0.0 mm
22:25 50.2 °F /  10.1 °C 47.5 °F /  8.6 °C 29.9 in /  1011.7 hPa SW 1 mph /  1.6 km/h 2 mph /  3.2 km/h 90 % 0 in /  0.0 mm
22:26 53.2 °F /  11.8 °C 50.4 °F /  10.2 °C 29.9 in /  1013.8 hPa SSW 1.2 mph /  1.9 km/h   90 % 0 in /  0.0 mm
22:31 53.1 °F /  11.7 °C 50.2 °F /  10.1 °C 29.9 in /  1013.8 hPa Calm     90 % 0 in /  0.0 mm
22:35 50 °F /  10.0 °C 46.9 °F /  8.3 °C 29.9 in /  1011.7 hPa SW 1 mph /  1.6 km/h 2 mph /  3.2 km/h 89 % 0 in /  0.0 mm
22:36 52.9 °F /  11.6 °C 50 °F /  10.0 °C 29.9 in /  1013.8 hPa SSW 2.3 mph /  3.7 km/h 2.3 mph /  3.7 km/h 90 % 0 in /  0.0 mm
22:41 52.9 °F /  11.6 °C 50 °F /  10.0 °C 29.9 in /  1013.8 hPa SSW 1.4 mph /  2.3 km/h 1.6 mph /  2.6 km/h 90 % 0 in /  0.0 mm
22:45 50 °F /  10.0 °C 46.9 °F /  8.3 °C 29.9 in /  1011.7 hPa Calm     89 % 0 in /  0.0 mm
22:46 52.7 °F /  11.5 °C 49.8 °F /  9.9 °C 29.9 in /  1013.8 hPa SW 2.3 mph /  3.7 km/h 2.3 mph /  3.7 km/h 90 % 0 in /  0.0 mm
22:51 52.7 °F /  11.5 °C 49.5 °F /  9.7 °C 29.9 in /  1013.8 hPa SW 2.3 mph /  3.7 km/h 2.3 mph /  3.7 km/h 89 % 0 in /  0.0 mm
22:55 49.8 °F /  9.9 °C 46.8 °F /  8.2 °C 29.9 in /  1011.7 hPa SW 1 mph /  1.6 km/h 2 mph /  3.2 km/h 89 % 0 in /  0.0 mm
22:56 52.7 °F /  11.5 °C 49.8 °F /  9.9 °C 29.9 in /  1013.8 hPa SW 2.3 mph /  3.7 km/h 2.3 mph /  3.7 km/h 90 % 0 in /  0.0 mm
23:01 52.7 °F /  11.5 °C 49.8 °F /  9.9 °C 29.9 in /  1013.8 hPa SW 1.2 mph /  1.9 km/h   90 % 0 in /  0.0 mm
23:05 49.5 °F /  9.7 °C 46.4 °F /  8.0 °C 29.9 in /  1011.7 hPa Calm   2 mph /  3.2 km/h 89 % 0 in /  0.0 mm
23:06 52.7 °F /  11.5 °C 49.8 °F /  9.9 °C 29.9 in /  1012.8 hPa SW 2.3 mph /  3.7 km/h 2.3 mph /  3.7 km/h 90 % 0 in /  0.0 mm
23:11 52.7 °F /  11.5 °C 49.8 °F /  9.9 °C 29.9 in /  1012.8 hPa SW 2.3 mph /  3.7 km/h 2.3 mph /  3.7 km/h 90 % 0 in /  0.0 mm
23:15 49.8 °F /  9.9 °C 46.8 °F /  8.2 °C 29.9 in /  1011.7 hPa SSW 1 mph /  1.6 km/h 3 mph /  4.8 km/h 89 % 0 in /  0.0 mm
23:16 52.7 °F /  11.5 °C 49.8 °F /  9.9 °C 29.9 in /  1012.8 hPa SW 1.2 mph /  1.9 km/h   90 % 0 in /  0.0 mm
23:21 52.7 °F /  11.5 °C 49.8 °F /  9.9 °C 29.9 in /  1013.8 hPa Calm     90 % 0 in /  0.0 mm
23:25 50 °F /  10.0 °C 46.9 °F /  8.3 °C 29.9 in /  1011.7 hPa SW 2 mph /  3.2 km/h 2 mph /  3.2 km/h 89 % 0 in /  0.0 mm
23:26 52.5 °F /  11.4 °C 49.6 °F /  9.8 °C 29.9 in /  1013.8 hPa Calm     90 % 0 in /  0.0 mm
23:31 52.5 °F /  11.4 °C 49.6 °F /  9.8 °C 29.9 in /  1013.8 hPa Calm     90 % 0 in /  0.0 mm
23:35 50 °F /  10.0 °C 46.9 °F /  8.3 °C 29.9 in /  1011.7 hPa Calm   1 mph /  1.6 km/h 89 % 0 in /  0.0 mm
23:36 52.3 °F /  11.3 °C 49.5 °F /  9.7 °C 29.9 in /  1013.8 hPa SSW 2.3 mph /  3.7 km/h 2.3 mph /  3.7 km/h 90 % 0 in /  0.0 mm
23:41 52.2 °F /  11.2 °C 48.9 °F /  9.4 °C 29.9 in /  1013.8 hPa SSW 2.3 mph /  3.7 km/h 2.3 mph /  3.7 km/h 89 % 0 in /  0.0 mm
23:45 49.3 °F /  9.6 °C 46.2 °F /  7.9 °C 29.9 in /  1011.7 hPa WSW 2 mph /  3.2 km/h 3 mph /  4.8 km/h 89 % 0 in /  0.0 mm
23:46 52.2 °F /  11.2 °C 48.9 °F /  9.4 °C 29.9 in /  1013.8 hPa SSW 2.3 mph /  3.7 km/h 2.3 mph /  3.7 km/h 89 % 0 in /  0.0 mm
23:51 52 °F /  11.1 °C 48.7 °F /  9.3 °C 29.9 in /  1013.8 hPa Calm     89 % 0 in /  0.0 mm
23:55 49.3 °F /  9.6 °C 46.2 °F /  7.9 °C 29.9 in /  1011.7 hPa SW 3 mph /  4.8 km/h 3 mph /  4.8 km/h 89 % 0 in /  0.0 mm
23:56 52 °F /  11.1 °C 48.7 °F /  9.3 °C 29.9 in /  1013.8 hPa SW 1.2 mph /  1.9 km/h 1.2 mph /  1.9 km/h 89 % 0 in /  0.0 mm
Meteo Sesrovires
Elogis d' Weather Underground - 3.5 mb

Guio original per  Jim McMurry - jmcmurry@mwt.net Adaptat per a la plantilla per  Wim van der Kuil - Leuven-Template.eu

Trobareu la nostra informacio del temps tambe a:

Weather Underground

AWEKAS